Time;durP1;ratioP1;P1;durP2;ratioP2;P2;SDS_P1;SDS_P2;PMS_P1;PMS_P2;Temp;Humidity;BMP_temperature;BMP_pressure;BME280_temperature;BME280_humidity;BME280_pressure;Samples;Min_cycle;Max_cycle;Signal;HPM_P1;HPM_P2
2021/12/21 00:01:50;;;;;;;0.50;0.30;;;2.40;1.00;;;;;;4992874;28;20456;-69
2021/12/21 00:04:18;;;;;;;0.50;0.20;;;2.40;1.00;;;;;;4986019;28;20947;-69
2021/12/21 00:06:46;;;;;;;0.50;0.10;;;2.50;1.00;;;;;;4974031;28;20453;-69
2021/12/21 00:09:14;;;;;;;0.50;0.10;;;2.50;1.00;;;;;;4975176;28;20979;-69
2021/12/21 00:11:43;;;;;;;1.53;0.97;;;2.50;1.00;;;;;;4977458;28;20446;-69
2021/12/21 00:14:18;;;;;;;0.97;0.97;;;2.50;1.00;;;;;;4982117;28;21055;-70
2021/12/21 00:17:04;;;;;;;0.50;0.30;;;2.40;1.00;;;;;;4997717;28;20440;-69
2021/12/21 00:19:53;;;;;;;0.50;0.10;;;2.40;1.00;;;;;;4997085;28;20800;-69
2021/12/21 00:22:58;;;;;;;0.50;0.10;;;;;;;;;;4997259;28;20531;-69
2021/12/21 00:25:23;;;;;;;6.47;6.20;;;2.40;1.00;;;;;;4983275;28;20478;-69
2021/12/21 00:27:52;;;;;;;3.20;0.40;;;2.40;1.00;;;;;;4976053;28;20462;-69
2021/12/21 00:30:22;;;;;;;0.90;0.60;;;2.40;1.00;;;;;;4977678;28;20538;-69
2021/12/21 00:32:50;;;;;;;0.50;0.10;;;2.40;1.00;;;;;;4977285;28;20450;-70
2021/12/21 00:35:18;;;;;;;0.50;0.10;;;2.30;1.00;;;;;;4977636;28;20513;-69
2021/12/21 00:37:47;;;;;;;0.50;0.10;;;2.30;1.00;;;;;;4977386;28;20454;-69
2021/12/21 00:40:15;;;;;;;0.50;0.10;;;2.30;1.00;;;;;;4978039;28;20509;-69
2021/12/21 00:42:43;;;;;;;0.50;0.10;;;2.30;1.00;;;;;;4977451;28;20473;-69
2021/12/21 00:45:12;;;;;;;0.50;0.10;;;2.20;1.00;;;;;;4990311;28;20484;-69
2021/12/21 00:47:46;;;;;;;0.50;0.10;;;2.30;1.00;;;;;;4997089;28;20457;-70
2021/12/21 00:50:17;;;;;;;0.97;0.87;;;2.30;1.00;;;;;;4997659;28;20492;-70
2021/12/21 00:52:47;;;;;;;0.50;0.10;;;2.30;1.00;;;;;;4998166;28;20820;-70
2021/12/21 00:55:15;;;;;;;0.67;0.40;;;2.30;1.00;;;;;;4986154;28;20483;-68
2021/12/21 00:57:43;;;;;;;0.50;0.20;;;2.30;1.00;;;;;;4978042;28;20825;-69
2021/12/21 01:00:16;;;;;;;0.60;0.20;;;2.20;1.00;;;;;;4978147;28;20514;-69
2021/12/21 01:02:44;;;;;;;0.50;0.10;;;2.10;1.00;;;;;;4977023;28;20450;-69
2021/12/21 01:05:20;;;;;;;0.50;0.17;;;2.10;1.00;;;;;;4988442;28;20504;-69
2021/12/21 01:07:51;;;;;;;5.63;2.00;;;2.20;1.00;;;;;;4996323;28;20444;-70
2021/12/21 01:10:47;;;;;;;0.50;0.20;;;2.20;1.00;;;;;;4995618;28;20460;-69
2021/12/21 01:13:29;;;;;;;0.50;0.10;;;2.20;1.00;;;;;;4995380;28;20457;-69
2021/12/21 01:16:21;;;;;;;0.50;0.10;;;2.20;1.00;;;;;;4956404;28;21048;-69
2021/12/21 01:19:05;;;;;;;0.50;0.10;;;2.20;1.00;;;;;;4956167;28;20467;-69
2021/12/21 01:21:38;;;;;;;0.50;0.10;;;;;;;;;;4955668;28;20909;-69
2021/12/21 01:27:03;;;;;;;0.50;0.10;;;2.20;1.00;;;;;;4995044;28;20489;-69
2021/12/21 01:29:37;;;;;;;0.50;0.10;;;2.20;1.00;;;;;;4995295;28;20465;-70
2021/12/21 01:32:15;;;;;;;0.50;0.10;;;2.20;1.00;;;;;;4992972;28;20440;-69
2021/12/21 01:34:53;;;;;;;0.50;0.10;;;2.10;1.00;;;;;;4975057;28;20449;-68
2021/12/21 01:37:27;;;;;;;0.70;0.67;;;2.10;1.00;;;;;;4975213;28;20457;-68
2021/12/21 01:40:10;;;;;;;0.50;0.10;;;2.00;1.00;;;;;;4975738;28;20817;-68
2021/12/21 01:42:54;;;;;;;0.93;0.93;;;1.90;1.00;;;;;;4980919;28;20456;-69
2021/12/21 01:50:57;;;;;;;0.50;0.10;;;1.90;1.00;;;;;;4997327;28;20826;-68
2021/12/21 01:53:25;;;;;;;0.50;0.10;;;1.90;1.00;;;;;;4986061;28;20446;-68
2021/12/21 01:55:53;;;;;;;0.50;0.10;;;1.90;1.00;;;;;;4993630;28;20449;-68
2021/12/21 01:58:21;;;;;;;0.50;0.10;;;1.90;1.00;;;;;;4994260;28;20442;-68
2021/12/21 02:00:49;;;;;;;0.50;0.20;;;1.90;1.00;;;;;;4994730;28;20473;-69
2021/12/21 02:03:19;;;;;;;0.50;0.20;;;1.90;1.00;;;;;;4994359;28;20468;-70
2021/12/21 02:05:47;;;;;;;0.50;0.10;;;2.00;1.00;;;;;;4976746;28;20561;-69
2021/12/21 02:08:16;;;;;;;0.50;0.10;;;2.00;1.00;;;;;;4977449;28;20840;-68
2021/12/21 02:10:44;;;;;;;0.50;0.10;;;2.00;1.00;;;;;;4977000;28;20475;-68
2021/12/21 02:13:12;;;;;;;2.37;0.60;;;2.00;1.00;;;;;;4977761;28;20439;-67
2021/12/21 02:15:40;;;;;;;0.50;0.10;;;1.90;1.00;;;;;;4977200;28;20954;-68
2021/12/21 02:18:33;;;;;;;0.50;0.13;;;1.90;1.00;;;;;;4974989;28;20455;-69
2021/12/21 02:21:14;;;;;;;0.50;0.10;;;1.90;1.00;;;;;;4973897;28;20473;-68
2021/12/21 02:23:42;;;;;;;0.50;0.10;;;1.90;1.00;;;;;;4973145;28;20454;-69
2021/12/21 02:26:22;;;;;;;0.50;0.20;;;1.80;1.00;;;;;;4972978;28;20477;-69
2021/12/21 02:29:12;;;;;;;0.50;0.10;;;1.80;1.00;;;;;;4971478;28;20484;-69
2021/12/21 02:31:42;;;;;;;0.50;0.10;;;1.80;1.00;;;;;;4976066;28;20480;-69
2021/12/21 02:34:10;;;;;;;0.50;0.10;;;1.80;1.00;;;;;;4982408;28;20453;-69
2021/12/21 02:36:40;;;;;;;0.63;0.47;;;1.80;1.00;;;;;;4998074;28;20465;-69
2021/12/21 02:39:12;;;;;;;0.80;0.63;;;1.70;1.00;;;;;;4997924;28;21011;-68
2021/12/21 02:41:41;;;;;;;0.50;0.20;;;1.70;1.00;;;;;;4995833;28;20456;-69
2021/12/21 02:44:09;;;;;;;0.50;0.10;;;1.60;1.00;;;;;;4990479;28;20574;-69
2021/12/21 02:46:39;;;;;;;0.50;0.20;;;1.60;1.00;;;;;;4977357;28;20489;-68
2021/12/21 02:49:07;;;;;;;0.50;0.10;;;1.60;1.00;;;;;;4980760;28;20992;-69
2021/12/21 02:51:40;;;;;;;0.50;0.10;;;1.60;1.00;;;;;;4980436;28;20453;-68
2021/12/21 02:54:08;;;;;;;0.50;0.10;;;1.60;1.00;;;;;;4985467;28;20449;-69
2021/12/21 02:56:36;;;;;;;2.50;0.87;;;1.50;1.00;;;;;;5000202;28;20450;-68
2021/12/21 02:59:05;;;;;;;0.50;0.20;;;1.40;1.00;;;;;;4996973;28;20478;-68
2021/12/21 03:01:34;;;;;;;0.70;0.70;;;1.40;1.00;;;;;;4998142;28;20539;-69
2021/12/21 03:04:02;;;;;;;0.50;0.10;;;;;;;;;;4994044;28;20461;-68
2021/12/21 03:09:37;;;;;;;0.50;0.10;;;1.40;1.00;;;;;;4978995;28;20478;-69
2021/12/21 03:12:15;;;;;;;0.50;0.10;;;1.40;1.00;;;;;;4978849;28;20458;-68
2021/12/21 03:14:43;;;;;;;0.50;0.10;;;1.40;1.00;;;;;;4985593;28;20481;-68
2021/12/21 03:17:11;;;;;;;0.50;0.10;;;1.50;1.00;;;;;;4995901;28;20442;-68
2021/12/21 03:19:39;;;;;;;0.50;0.10;;;1.50;1.00;;;;;;4995170;28;20476;-69
2021/12/21 03:22:08;;;;;;;0.50;0.10;;;1.50;1.00;;;;;;4995038;28;20453;-68
2021/12/21 03:24:39;;;;;;;0.50;0.20;;;1.50;1.00;;;;;;4985913;28;20481;-68
2021/12/21 03:27:06;;;;;;;0.50;0.10;;;1.50;1.00;;;;;;4974049;28;20497;-69
2021/12/21 03:29:34;;;;;;;0.50;0.10;;;1.50;1.00;;;;;;4973860;28;21024;-68
2021/12/21 03:32:02;;;;;;;0.50;0.20;;;1.50;1.00;;;;;;4973921;28;20450;-68
2021/12/21 03:34:30;;;;;;;0.50;0.20;;;1.50;1.00;;;;;;4982515;28;20527;-69
2021/12/21 03:36:59;;;;;;;0.77;0.67;;;1.40;1.00;;;;;;4994260;28;20445;-69
2021/12/21 03:39:26;;;;;;;0.50;0.10;;;1.40;1.00;;;;;;4994629;28;20564;-68
2021/12/21 03:41:58;;;;;;;0.50;0.10;;;1.40;1.00;;;;;;4997167;28;20449;-68
2021/12/21 03:44:27;;;;;;;1.00;0.77;;;1.30;1.00;;;;;;4994800;28;20463;-68
2021/12/21 03:46:56;;;;;;;0.50;0.17;;;1.30;1.00;;;;;;4999974;28;20484;-68
2021/12/21 03:52:16;;;;;;;0.50;0.10;;;1.20;1.00;;;;;;4987164;28;20453;-68
2021/12/21 03:54:47;;;;;;;3.53;0.97;;;1.20;1.00;;;;;;4986533;28;20455;-68
2021/12/21 03:57:17;;;;;;;0.83;0.80;;;1.20;1.00;;;;;;4980218;28;20454;-68
2021/12/21 03:59:46;;;;;;;0.50;0.10;;;1.20;1.00;;;;;;4978125;28;20513;-68
2021/12/21 04:02:14;;;;;;;0.50;0.10;;;1.20;1.00;;;;;;4975562;28;20458;-68
2021/12/21 04:04:43;;;;;;;0.50;0.30;;;1.10;1.00;;;;;;4978353;28;20477;-68
2021/12/21 04:07:12;;;;;;;0.80;0.73;;;1.10;1.00;;;;;;4978863;28;20573;-68
2021/12/21 04:09:40;;;;;;;2.87;1.93;;;1.10;1.00;;;;;;4978457;28;20496;-68
2021/12/21 04:12:09;;;;;;;0.50;0.10;;;1.10;1.00;;;;;;4983217;28;20460;-67
2021/12/21 04:14:38;;;;;;;0.50;0.10;;;1.10;1.00;;;;;;4994572;28;20505;-68
2021/12/21 04:17:16;;;;;;;0.50;0.10;;;1.10;1.00;;;;;;4974816;28;20444;-68
2021/12/21 04:19:45;;;;;;;0.50;0.10;;;1.10;1.00;;;;;;4979011;28;20549;-68
2021/12/21 04:22:12;;;;;;;0.67;0.33;;;1.10;1.00;;;;;;4980710;28;20469;-69
2021/12/21 04:24:40;;;;;;;0.87;0.77;;;1.10;1.00;;;;;;4978632;28;20453;-68
2021/12/21 04:27:08;;;;;;;1.07;1.07;;;1.10;1.00;;;;;;4978074;28;20481;-68
2021/12/21 04:29:37;;;;;;;7.53;1.80;;;1.00;1.00;;;;;;4977817;28;20462;-68
2021/12/21 04:32:06;;;;;;;0.50;0.10;;;1.00;1.00;;;;;;4982654;28;20450;-68
2021/12/21 04:34:35;;;;;;;0.50;0.30;;;1.00;1.00;;;;;;4997928;28;20477;-68
2021/12/21 04:37:03;;;;;;;4.40;4.20;;;1.00;1.00;;;;;;4998837;28;20453;-68
2021/12/21 04:39:37;;;;;;;2.20;0.40;;;1.00;1.00;;;;;;4997795;28;20773;-69
2021/12/21 04:42:06;;;;;;;0.50;0.20;;;0.90;1.00;;;;;;4997232;28;20453;-69
2021/12/21 04:44:34;;;;;;;0.50;0.10;;;1.00;1.00;;;;;;4980872;28;20955;-68
2021/12/21 04:47:04;;;;;;;0.50;0.10;;;0.90;1.00;;;;;;4976976;28;20514;-68
2021/12/21 04:49:32;;;;;;;0.50;0.17;;;1.00;1.00;;;;;;4976992;28;20537;-68
2021/12/21 04:52:00;;;;;;;0.50;0.10;;;;;;;;;;4976935;28;20464;-69
2021/12/21 04:54:28;;;;;;;0.50;0.10;;;1.00;1.00;;;;;;4976365;28;20472;-70
2021/12/21 04:56:56;;;;;;;0.93;0.83;;;1.00;1.00;;;;;;4976559;28;20446;-67
2021/12/21 04:59:24;;;;;;;0.50;0.10;;;1.10;1.00;;;;;;4976369;28;20514;-70
2021/12/21 05:01:52;;;;;;;0.50;0.10;;;;;;;;;;4977661;28;20989;-67
2021/12/21 05:04:21;;;;;;;0.50;0.10;;;1.10;1.00;;;;;;4993669;28;20529;-66
2021/12/21 05:06:52;;;;;;;0.60;0.10;;;1.10;1.00;;;;;;4995647;28;20485;-67
2021/12/21 05:09:29;;;;;;;0.50;0.17;;;1.00;1.00;;;;;;4995525;28;20545;-69
2021/12/21 05:12:02;;;;;;;0.50;0.20;;;1.00;1.00;;;;;;4993308;28;20452;-68
2021/12/21 05:14:31;;;;;;;0.50;0.10;;;1.00;1.00;;;;;;4987101;28;20455;-67
2021/12/21 05:16:59;;;;;;;0.50;0.10;;;1.00;1.00;;;;;;4995917;28;20943;-67
2021/12/21 05:19:28;;;;;;;0.50;0.17;;;0.90;1.00;;;;;;4996108;28;20501;-67
2021/12/21 05:21:56;;;;;;;0.50;0.10;;;0.90;1.00;;;;;;4980655;28;20454;-68
2021/12/21 05:24:24;;;;;;;4.20;2.53;;;0.90;1.00;;;;;;4975847;28;20450;-67
2021/12/21 05:26:52;;;;;;;0.60;0.43;;;0.90;1.00;;;;;;4976057;28;20450;-69
2021/12/21 05:29:20;;;;;;;0.50;0.10;;;0.80;1.00;;;;;;4971323;28;21051;-67
2021/12/21 05:31:49;;;;;;;0.50;0.10;;;0.80;1.00;;;;;;4973349;28;20818;-67
2021/12/21 05:34:17;;;;;;;0.50;0.10;;;0.80;1.00;;;;;;4975764;28;20442;-67
2021/12/21 05:36:46;;;;;;;0.50;0.10;;;0.80;1.00;;;;;;4975677;28;20442;-67
2021/12/21 05:39:19;;;;;;;2.50;2.40;;;0.80;1.00;;;;;;4975280;28;20541;-67
2021/12/21 05:41:50;;;;;;;0.50;0.10;;;0.80;1.00;;;;;;4975113;28;20454;-67
2021/12/21 05:44:20;;;;;;;0.50;0.10;;;0.70;1.00;;;;;;4975051;28;20446;-69
2021/12/21 05:46:49;;;;;;;0.50;0.10;;;0.70;1.00;;;;;;4975054;28;20546;-68
2021/12/21 05:49:18;;;;;;;0.50;0.10;;;0.70;1.00;;;;;;4974997;28;20821;-68
2021/12/21 05:51:47;;;;;;;0.50;0.10;;;0.70;1.00;;;;;;4987535;28;20485;-67
2021/12/21 05:54:18;;;;;;;5.80;5.50;;;0.70;1.00;;;;;;4994438;28;20445;-67
2021/12/21 05:56:46;;;;;;;0.50;0.10;;;0.80;1.00;;;;;;4994727;28;20831;-67
2021/12/21 05:59:15;;;;;;;0.50;0.10;;;0.80;1.00;;;;;;4994341;28;20477;-68
2021/12/21 06:01:42;;;;;;;1.90;1.50;;;0.80;1.00;;;;;;4981975;28;20448;-67
2021/12/21 06:04:10;;;;;;;0.50;0.30;;;0.90;1.00;;;;;;4974911;28;20530;-67
2021/12/21 06:06:38;;;;;;;0.50;0.10;;;0.90;1.00;;;;;;4974900;28;20509;-67
2021/12/21 06:09:10;;;;;;;0.50;0.10;;;0.90;1.00;;;;;;4975061;28;20582;-69
2021/12/21 06:11:45;;;;;;;0.60;0.40;;;;;;;;;;4985930;28;20459;-69
2021/12/21 06:14:40;;;;;;;0.50;0.10;;;0.90;1.00;;;;;;4994212;28;20429;-68
2021/12/21 06:22:52;;;;;;;0.60;0.40;;;0.90;1.00;;;;;;4972740;28;20458;-71
2021/12/21 06:25:34;;;;;;;0.50;0.10;;;0.90;1.00;;;;;;4974956;28;20451;-69
2021/12/21 06:28:03;;;;;;;0.50;0.10;;;0.90;1.00;;;;;;4974949;28;20488;-68
2021/12/21 06:30:32;;;;;;;0.50;0.10;;;0.80;1.00;;;;;;4975938;28;20466;-69
2021/12/21 06:33:00;;;;;;;0.50;0.10;;;0.80;1.00;;;;;;4974873;28;20465;-69
2021/12/21 06:35:28;;;;;;;0.50;0.10;;;0.80;1.00;;;;;;4973960;28;20442;-69
2021/12/21 06:37:57;;;;;;;0.50;0.10;;;0.90;1.00;;;;;;4974281;28;20449;-69
2021/12/21 06:40:27;;;;;;;0.50;0.10;;;0.90;1.00;;;;;;4974367;28;20462;-68
2021/12/21 06:42:56;;;;;;;0.60;0.30;;;0.90;1.00;;;;;;4993256;28;20445;-69
2021/12/21 06:45:32;;;;;;;1.80;1.70;;;0.90;1.00;;;;;;4993396;28;20524;-68
2021/12/21 06:53:32;;;;;;;0.50;0.10;;;0.90;1.00;;;;;;4974245;28;20456;-67
2021/12/21 06:56:01;;;;;;;0.50;0.10;;;0.90;1.00;;;;;;4973308;28;20533;-68
2021/12/21 06:58:29;;;;;;;0.60;0.40;;;;;;;;;;4974287;28;20541;-68
2021/12/21 07:00:58;;;;;;;0.50;0.10;;;0.80;1.00;;;;;;4978524;28;20472;-68
2021/12/21 07:03:27;;;;;;;6.23;1.43;;;;;;;;;;4993086;28;20960;-68
2021/12/21 07:05:55;;;;;;;0.50;0.10;;;0.70;1.00;;;;;;4992962;28;20457;-69
2021/12/21 07:08:27;;;;;;;0.50;0.30;;;0.70;1.00;;;;;;4993003;28;20573;-69
2021/12/21 07:11:08;;;;;;;0.50;0.10;;;0.70;1.00;;;;;;4988994;28;20480;-68
2021/12/21 07:19:10;;;;;;;0.60;0.20;;;0.60;1.00;;;;;;4973384;28;20458;-69
2021/12/21 07:21:39;;;;;;;0.97;0.97;;;0.60;1.00;;;;;;4982476;28;20453;-69
2021/12/21 07:24:07;;;;;;;0.60;0.50;;;0.60;1.00;;;;;;4975920;28;20504;-68
2021/12/21 07:26:35;;;;;;;0.50;0.10;;;0.60;1.00;;;;;;4973999;28;20441;-68
2021/12/21 07:29:05;;;;;;;0.50;0.10;;;0.60;1.00;;;;;;4973367;28;20489;-68
2021/12/21 07:31:34;;;;;;;0.50;0.10;;;0.60;1.00;;;;;;4980067;28;20480;-69
2021/12/21 07:34:02;;;;;;;0.50;0.10;;;0.60;1.00;;;;;;4993100;28;20937;-69
2021/12/21 07:36:32;;;;;;;0.50;0.10;;;0.60;1.00;;;;;;4992821;28;20456;-68
2021/12/21 07:39:00;;;;;;;0.50;0.10;;;0.60;1.00;;;;;;4992872;28;20484;-68
2021/12/21 07:41:28;;;;;;;0.50;0.20;;;0.60;1.00;;;;;;4987770;28;20467;-68
2021/12/21 07:43:56;;;;;;;0.50;0.10;;;0.60;1.00;;;;;;4973767;28;20455;-68
2021/12/21 07:46:26;;;;;;;0.50;0.10;;;0.60;1.00;;;;;;4976764;28;20457;-68
2021/12/21 07:48:54;;;;;;;3.03;0.87;;;0.50;1.00;;;;;;4988688;28;20507;-68
2021/12/21 07:51:23;;;;;;;0.50;0.10;;;0.50;1.00;;;;;;4999662;28;20445;-68
2021/12/21 07:53:51;;;;;;;0.50;0.10;;;0.50;1.00;;;;;;4999421;28;20449;-69
2021/12/21 07:56:19;;;;;;;0.50;0.10;;;0.50;1.00;;;;;;4996220;28;20445;-68
2021/12/21 07:58:48;;;;;;;0.50;0.10;;;0.60;1.00;;;;;;4991986;28;20452;-68
2021/12/21 08:01:16;;;;;;;0.50;0.10;;;0.60;1.00;;;;;;4992940;28;20441;-68
2021/12/21 08:03:45;;;;;;;0.50;0.20;;;0.60;1.00;;;;;;4991924;28;20457;-68
2021/12/21 08:06:14;;;;;;;0.50;0.10;;;0.60;1.00;;;;;;4974744;28;20500;-68
2021/12/21 08:08:44;;;;;;;0.50;0.10;;;0.60;1.00;;;;;;4974508;28;20493;-68
2021/12/21 08:11:17;;;;;;;0.50;0.20;;;0.60;1.00;;;;;;4973581;28;20442;-68
2021/12/21 08:13:47;;;;;;;0.50;0.10;;;0.60;1.00;;;;;;4975694;28;20530;-69
2021/12/21 08:16:16;;;;;;;0.50;0.20;;;0.60;1.00;;;;;;4957048;28;20473;-69
2021/12/21 08:18:45;;;;;;;0.50;0.10;;;-0.20;1.00;;;;;;4961019;28;20457;-69
2021/12/21 08:21:16;;;;;;;0.50;0.30;;;0.60;1.00;;;;;;4967046;28;20442;-68
2021/12/21 08:23:44;;;;;;;0.50;0.10;;;0.70;1.00;;;;;;4973307;28;20442;-69
2021/12/21 08:26:12;;;;;;;0.50;0.10;;;0.70;1.00;;;;;;4992036;28;20738;-68
2021/12/21 08:28:40;;;;;;;0.50;0.10;;;0.70;1.00;;;;;;4992455;28;20485;-68
2021/12/21 08:31:10;;;;;;;0.50;0.10;;;0.70;1.00;;;;;;4996577;28;20471;-69
2021/12/21 08:33:39;;;;;;;0.50;0.27;;;0.70;1.00;;;;;;4997645;28;20452;-68
2021/12/21 08:36:10;;;;;;;0.50;0.20;;;0.80;1.00;;;;;;4997257;28;20511;-69
2021/12/21 08:38:41;;;;;;;1.90;1.40;;;0.80;1.00;;;;;;4996338;28;20441;-70
2021/12/21 08:41:10;;;;;;;1.13;1.13;;;0.80;1.00;;;;;;4995670;28;20451;-69
2021/12/21 08:43:39;;;;;;;0.50;0.20;;;0.80;1.00;;;;;;4995863;28;20476;-70
2021/12/21 08:46:08;;;;;;;9.00;1.70;;;0.80;1.00;;;;;;4977908;28;20465;-69
2021/12/21 08:48:36;;;;;;;2.53;2.20;;;0.90;1.00;;;;;;4976101;28;20445;-69
2021/12/21 08:51:05;;;;;;;1.70;0.87;;;0.80;1.00;;;;;;4976296;28;20477;-69
2021/12/21 08:53:37;;;;;;;0.60;0.40;;;0.90;1.00;;;;;;4975801;28;20941;-69
2021/12/21 08:56:05;;;;;;;0.50;0.20;;;1.00;1.00;;;;;;4973847;28;20831;-68
2021/12/21 08:58:33;;;;;;;0.50;0.10;;;1.00;1.00;;;;;;4975957;28;20452;-69
2021/12/21 09:01:01;;;;;;;0.50;0.10;;;1.00;1.00;;;;;;4975924;28;20454;-69
2021/12/21 09:03:29;;;;;;;0.50;0.10;;;1.10;1.00;;;;;;4975426;28;20482;-69
2021/12/21 09:05:58;;;;;;;0.50;0.10;;;1.20;1.00;;;;;;4973971;28;20450;-70
2021/12/21 09:08:26;;;;;;;0.50;0.10;;;1.20;1.00;;;;;;4974719;28;20945;-69
2021/12/21 09:11:02;;;;;;;0.50;0.10;;;1.20;1.00;;;;;;4975134;28;20486;-69
2021/12/21 09:13:30;;;;;;;0.50;0.10;;;1.20;1.00;;;;;;4973062;28;20466;-70
2021/12/21 09:15:58;;;;;;;0.50;0.10;;;1.30;1.00;;;;;;4975889;28;20494;-70
2021/12/21 09:18:26;;;;;;;0.50;0.10;;;1.40;1.00;;;;;;4975705;28;20794;-69
2021/12/21 09:20:54;;;;;;;1.23;0.97;;;1.40;1.00;;;;;;4975790;28;20847;-69
2021/12/21 09:23:22;;;;;;;0.50;0.10;;;1.40;1.00;;;;;;4975556;28;21021;-69
2021/12/21 09:25:50;;;;;;;0.50;0.10;;;1.40;1.00;;;;;;4990079;28;20472;-70
2021/12/21 09:28:19;;;;;;;0.50;0.10;;;1.40;1.00;;;;;;4995506;28;20453;-69
2021/12/21 09:30:47;;;;;;;0.50;0.10;;;1.50;1.00;;;;;;4995011;28;20478;-68
2021/12/21 09:33:15;;;;;;;3.40;3.30;;;1.50;1.00;;;;;;4995043;28;20456;-68
2021/12/21 09:35:43;;;;;;;0.50;0.10;;;1.60;1.00;;;;;;4980655;28;20457;-68
2021/12/21 09:38:11;;;;;;;0.50;0.10;;;1.70;1.00;;;;;;4975433;28;20446;-69
2021/12/21 09:40:40;;;;;;;0.50;0.10;;;1.70;1.00;;;;;;4974844;28;20557;-70
2021/12/21 09:43:10;;;;;;;0.50;0.10;;;1.80;1.00;;;;;;4973126;28;20470;-69
2021/12/21 09:45:40;;;;;;;0.50;0.10;;;1.90;1.00;;;;;;4981043;28;20457;-69
2021/12/21 09:48:08;;;;;;;0.63;0.40;;;1.90;1.00;;;;;;4976177;28;20442;-69
2021/12/21 09:50:37;;;;;;;0.50;0.10;;;2.00;1.00;;;;;;4975403;28;20493;-70
2021/12/21 09:53:05;;;;;;;0.50;0.10;;;2.00;1.00;;;;;;4975186;28;20453;-68
2021/12/21 09:55:33;;;;;;;1.37;1.27;;;2.00;1.00;;;;;;4986786;28;20453;-68
2021/12/21 09:58:01;;;;;;;0.50;0.10;;;2.10;1.00;;;;;;4994928;28;20809;-69
2021/12/21 10:00:33;;;;;;;0.50;0.10;;;2.20;1.00;;;;;;4995348;28;20473;-69
2021/12/21 10:03:05;;;;;;;0.50;0.10;;;2.20;1.00;;;;;;4994665;28;20441;-69
2021/12/21 10:05:35;;;;;;;0.60;0.40;;;2.20;1.00;;;;;;4979731;28;20469;-70
2021/12/21 10:08:06;;;;;;;0.50;0.10;;;2.30;1.00;;;;;;4975193;28;20442;-69
2021/12/21 10:10:38;;;;;;;0.50;0.10;;;2.30;1.00;;;;;;4975000;28;21015;-69
2021/12/21 10:13:11;;;;;;;0.50;0.10;;;2.40;1.00;;;;;;4973672;28;20537;-71
2021/12/21 10:15:42;;;;;;;0.50;0.10;;;2.40;1.00;;;;;;4987035;28;20487;-69
2021/12/21 10:18:13;;;;;;;0.50;0.10;;;2.50;1.00;;;;;;4994349;28;20529;-69
2021/12/21 10:20:43;;;;;;;0.50;0.10;;;2.50;1.00;;;;;;4980076;28;20481;-69
2021/12/21 10:23:14;;;;;;;0.60;0.50;;;2.50;1.00;;;;;;4974596;28;20541;-70
2021/12/21 10:25:44;;;;;;;0.50;0.10;;;2.60;1.00;;;;;;4974057;28;20464;-70
2021/12/21 10:28:13;;;;;;;0.50;0.10;;;2.60;1.00;;;;;;4974477;28;20435;-70
2021/12/21 10:30:49;;;;;;;0.50;0.10;;;2.60;1.00;;;;;;4986785;28;20966;-70
2021/12/21 10:33:18;;;;;;;0.50;0.10;;;2.60;1.00;;;;;;4993468;28;20469;-70
2021/12/21 10:35:46;;;;;;;0.50;0.23;;;2.60;1.00;;;;;;4990855;28;20452;-70
2021/12/21 10:38:24;;;;;;;3.20;3.00;;;2.70;1.00;;;;;;4976553;28;21760;-70
2021/12/21 10:40:52;;;;;;;0.80;0.80;;;2.70;1.00;;;;;;4971508;28;20570;-69
2021/12/21 10:43:20;;;;;;;0.60;0.30;;;2.70;1.00;;;;;;4964041;28;20490;-70
2021/12/21 10:45:48;;;;;;;0.50;0.20;;;2.80;1.00;;;;;;4969975;28;20937;-70
2021/12/21 10:48:19;;;;;;;0.50;0.10;;;2.80;1.00;;;;;;4974622;28;20845;-69
2021/12/21 10:50:49;;;;;;;0.50;0.10;;;2.80;1.00;;;;;;4973469;28;20572;-69
2021/12/21 10:53:19;;;;;;;0.50;0.10;;;2.90;1.00;;;;;;4973399;28;20505;-69
2021/12/21 10:55:58;;;;;;;0.50;0.10;;;2.90;1.00;;;;;;4969869;28;20545;-69
2021/12/21 10:58:29;;;;;;;0.50;0.10;;;2.90;1.00;;;;;;4974387;28;20547;-71
2021/12/21 11:00:59;;;;;;;0.50;0.10;;;2.90;1.00;;;;;;4973660;28;20529;-70
2021/12/21 11:03:37;;;;;;;0.50;0.10;;;3.00;1.00;;;;;;4973484;28;20450;-70
2021/12/21 11:06:13;;;;;;;0.50;0.10;;;3.10;1.00;;;;;;4973128;28;20446;-70
2021/12/21 11:08:43;;;;;;;0.50;0.10;;;3.10;1.00;;;;;;4986433;28;20453;-71
2021/12/21 11:11:22;;;;;;;0.50;0.10;;;3.10;1.00;;;;;;4992374;28;21023;-70
2021/12/21 11:14:04;;;;;;;0.50;0.10;;;3.20;1.00;;;;;;4992680;28;20480;-71
2021/12/21 11:16:39;;;;;;;0.50;0.10;;;3.20;1.00;;;;;;4992584;28;20444;-71
2021/12/21 11:19:10;;;;;;;0.50;0.10;;;3.20;1.00;;;;;;4973881;28;20494;-70
2021/12/21 11:21:39;;;;;;;0.50;0.10;;;3.20;1.00;;;;;;4973174;28;20518;-69
2021/12/21 11:24:09;;;;;;;0.50;0.10;;;3.30;1.00;;;;;;4973104;28;20452;-72
2021/12/21 11:26:39;;;;;;;0.50;0.10;;;3.30;1.00;;;;;;4973014;28;20449;-71
2021/12/21 11:29:08;;;;;;;0.50;0.10;;;3.40;1.00;;;;;;4971743;28;20493;-70
2021/12/21 11:31:38;;;;;;;0.60;0.40;;;3.50;1.00;;;;;;4972821;28;20481;-70
2021/12/21 11:34:13;;;;;;;0.50;0.10;;;3.50;1.00;;;;;;4973089;28;20503;-69
2021/12/21 11:39:32;;;;;;;0.50;0.10;;;3.50;1.00;;;;;;4987773;28;20476;-69
2021/12/21 11:42:01;;;;;;;0.50;0.10;;;3.50;1.00;;;;;;4970946;28;20466;-71
2021/12/21 11:44:36;;;;;;;0.50;0.10;;;3.60;1.00;;;;;;4973672;28;20456;-70
2021/12/21 11:47:11;;;;;;;0.50;0.10;;;3.60;1.00;;;;;;4972528;28;20461;-71
2021/12/21 11:49:46;;;;;;;0.50;0.10;;;3.70;1.00;;;;;;4972571;28;20492;-70
2021/12/21 11:52:17;;;;;;;0.50;0.10;;;3.70;1.00;;;;;;4971689;28;20494;-70
2021/12/21 11:54:48;;;;;;;0.50;0.10;;;3.70;1.00;;;;;;4980893;28;20798;-71
2021/12/21 11:57:18;;;;;;;0.50;0.10;;;3.80;1.00;;;;;;4987267;28;20471;-71
2021/12/21 11:59:46;;;;;;;0.50;0.10;;;3.90;1.00;;;;;;4969492;28;20943;-71
2021/12/21 12:02:15;;;;;;;0.50;0.10;;;3.90;1.00;;;;;;4971693;28;20443;-71
2021/12/21 12:04:55;;;;;;;0.50;0.10;;;3.90;1.00;;;;;;4971006;28;20477;-70
2021/12/21 12:07:23;;;;;;;0.50;0.10;;;4.00;1.00;;;;;;4970506;28;20454;-70
2021/12/21 12:10:05;;;;;;;0.50;0.10;;;4.10;1.00;;;;;;4975069;28;20483;-71
2021/12/21 12:12:33;;;;;;;0.50;0.10;;;4.10;1.00;;;;;;4976358;28;20995;-70
2021/12/21 12:15:04;;;;;;;2.50;1.50;;;4.10;1.00;;;;;;4975647;28;20918;-71
2021/12/21 12:17:33;;;;;;;0.50;0.10;;;4.20;1.00;;;;;;4976854;28;20469;-70
2021/12/21 12:20:07;;;;;;;0.50;0.10;;;4.20;1.00;;;;;;4976290;28;20562;-70
2021/12/21 12:22:37;;;;;;;0.50;0.10;;;4.20;1.00;;;;;;4976576;28;20439;-71
2021/12/21 12:25:07;;;;;;;0.50;0.10;;;4.30;1.00;;;;;;4977268;28;20473;-70
2021/12/21 12:27:44;;;;;;;0.50;0.10;;;4.30;1.00;;;;;;4976316;28;20452;-71
2021/12/21 12:30:16;;;;;;;0.50;0.10;;;4.30;1.00;;;;;;4976663;28;20496;-71
2021/12/21 12:32:47;;;;;;;0.50;0.10;;;4.30;1.00;;;;;;4976272;28;20874;-70
2021/12/21 12:35:18;;;;;;;0.50;0.10;;;4.30;1.00;;;;;;4987708;28;20451;-70
2021/12/21 12:37:51;;;;;;;0.50;0.10;;;4.20;1.00;;;;;;4992429;28;20441;-70
2021/12/21 12:40:21;;;;;;;0.50;0.10;;;4.20;1.00;;;;;;4969314;28;20856;-70
2021/12/21 12:43:02;;;;;;;0.60;0.30;;;4.30;1.00;;;;;;4976143;28;20448;-71
2021/12/21 12:45:35;;;;;;;0.50;0.10;;;;;;;;;;4976228;28;20455;-70
2021/12/21 12:48:04;;;;;;;0.50;0.10;;;4.30;1.00;;;;;;4976742;28;20425;-69
2021/12/21 12:50:40;;;;;;;0.50;0.10;;;4.30;1.00;;;;;;4976449;28;20462;-71
2021/12/21 12:53:08;;;;;;;0.50;0.10;;;4.30;1.00;;;;;;4976253;28;20448;-71
2021/12/21 12:55:40;;;;;;;0.50;0.10;;;4.30;1.00;;;;;;4989276;28;20453;-71
2021/12/21 12:58:29;;;;;;;0.50;0.10;;;4.40;1.00;;;;;;4995834;28;20548;-70
2021/12/21 13:01:00;;;;;;;0.50;0.10;;;4.40;1.00;;;;;;4994874;28;21036;-71
2021/12/21 13:03:35;;;;;;;0.50;0.10;;;4.40;1.00;;;;;;4995715;28;20443;-71
2021/12/21 13:06:10;;;;;;;0.50;0.10;;;4.40;1.00;;;;;;4978792;28;20466;-71
2021/12/21 13:08:39;;;;;;;0.50;0.10;;;4.40;1.00;;;;;;4985996;28;20480;-71
2021/12/21 13:11:11;;;;;;;0.50;0.10;;;4.50;1.00;;;;;;4994923;28;20567;-71
2021/12/21 13:13:43;;;;;;;0.50;0.10;;;4.50;1.00;;;;;;4995724;28;20446;-70
2021/12/21 13:16:13;;;;;;;0.50;0.10;;;4.50;1.00;;;;;;4976711;28;20459;-71
2021/12/21 13:18:47;;;;;;;0.50;0.10;;;4.50;1.00;;;;;;4975659;28;20531;-69
2021/12/21 13:21:22;;;;;;;0.50;0.10;;;4.50;1.00;;;;;;4975661;28;20439;-71
2021/12/21 13:23:51;;;;;;;0.50;0.10;;;4.50;1.00;;;;;;4975879;28;20434;-72
2021/12/21 13:26:23;;;;;;;0.50;0.10;;;4.60;1.00;;;;;;4973188;28;20462;-71
2021/12/21 13:28:56;;;;;;;0.50;0.10;;;4.70;1.00;;;;;;4975357;28;20499;-71
2021/12/21 13:31:24;;;;;;;0.50;0.10;;;4.70;1.00;;;;;;4975700;28;20490;-70
2021/12/21 13:33:55;;;;;;;0.50;0.10;;;4.70;1.00;;;;;;4975683;28;21018;-69
2021/12/21 13:36:34;;;;;;;0.50;0.10;;;4.70;1.00;;;;;;4994159;28;20447;-70
2021/12/21 13:39:03;;;;;;;0.50;0.10;;;4.70;1.00;;;;;;4984999;28;20474;-71
2021/12/21 13:41:32;;;;;;;2.10;2.00;;;4.70;1.00;;;;;;4975787;28;20819;-70
2021/12/21 13:44:01;;;;;;;0.50;0.10;;;4.70;1.00;;;;;;4975523;28;20486;-71
2021/12/21 13:46:34;;;;;;;0.50;0.27;;;4.60;1.00;;;;;;4994181;28;20831;-70
2021/12/21 13:49:02;;;;;;;0.50;0.10;;;4.60;1.00;;;;;;4995115;28;20469;-70
2021/12/21 13:51:32;;;;;;;0.50;0.10;;;4.60;1.00;;;;;;4994918;28;20482;-70
2021/12/21 13:54:00;;;;;;;0.50;0.10;;;4.60;1.00;;;;;;4994821;28;20484;-70
2021/12/21 13:56:31;;;;;;;0.50;0.10;;;4.60;1.00;;;;;;4975582;28;20472;-69
2021/12/21 13:58:59;;;;;;;0.50;0.10;;;4.60;1.00;;;;;;4975605;28;20474;-70
2021/12/21 14:01:30;;;;;;;0.50;0.10;;;4.60;1.00;;;;;;4975007;28;21025;-70
2021/12/21 14:04:02;;;;;;;0.50;0.10;;;4.60;1.00;;;;;;4974977;28;20942;-70